createdAt,value
2018-09-05T00:00:42.380Z,97860.47
2018-09-05T00:03:11.668Z,97860.20
2018-09-05T00:05:40.990Z,97865.28
2018-09-05T00:08:10.218Z,97866.09
2018-09-05T00:10:39.758Z,97857.25
2018-09-05T00:13:09.152Z,97860.77
2018-09-05T00:15:38.499Z,97862.92
2018-09-05T00:18:07.856Z,97859.97
2018-09-05T00:20:37.161Z,97860.24
2018-09-05T00:23:06.512Z,97860.80
2018-09-05T00:25:35.790Z,97864.81
2018-09-05T00:28:05.136Z,97849.03
2018-09-05T00:30:34.793Z,97855.43
2018-09-05T00:33:04.194Z,97853.59
2018-09-05T00:35:33.477Z,97853.30
2018-09-05T00:38:02.806Z,97852.80
2018-09-05T00:40:32.108Z,97853.61
2018-09-05T00:43:01.497Z,97857.91
2018-09-05T00:45:30.906Z,97860.84
2018-09-05T00:48:00.321Z,97856.84
2018-09-05T00:50:29.724Z,97852.03
2018-09-05T00:52:59.064Z,97855.27
2018-09-05T00:55:28.523Z,97849.63
2018-09-05T00:57:57.891Z,97855.25
2018-09-05T01:00:27.349Z,97852.03
2018-09-05T01:02:56.729Z,97841.58
2018-09-05T01:05:26.150Z,97845.61
2018-09-05T01:07:55.534Z,97840.77
2018-09-05T01:10:25.141Z,97845.88
2018-09-05T01:12:54.542Z,97850.70
2018-09-05T01:15:23.994Z,97843.23
2018-09-05T01:17:53.438Z,97847.23
2018-09-05T01:20:22.968Z,97856.89
2018-09-05T01:22:52.315Z,97852.04
2018-09-05T01:25:21.643Z,97854.20
2018-09-05T01:27:51.033Z,97856.63
2018-09-05T01:30:20.358Z,97857.16
2018-09-05T01:32:49.740Z,97856.36
2018-09-05T01:35:19.050Z,97856.88
2018-09-05T01:37:48.386Z,97856.89
2018-09-05T01:40:17.693Z,97857.71
2018-09-05T01:42:47.016Z,97855.84
2018-09-05T01:45:16.344Z,97852.34
2018-09-05T01:47:45.672Z,97850.19
2018-09-05T01:50:15.044Z,97849.39
2018-09-05T01:52:44.364Z,97844.58
2018-09-05T01:55:13.763Z,97850.48
2018-09-05T01:57:43.224Z,97852.09
2018-09-05T02:00:16.773Z,97858.52
2018-09-05T02:02:46.101Z,97861.20
2018-09-05T02:05:15.482Z,97851.54
2018-09-05T02:07:44.799Z,97853.70
2018-09-05T02:10:14.147Z,97850.74
2018-09-05T02:12:43.550Z,97844.30
2018-09-05T02:15:12.891Z,97851.83
2018-09-05T02:17:42.190Z,97846.20
2018-09-05T02:20:11.587Z,97850.21
2018-09-05T02:22:40.927Z,97844.00
2018-09-05T02:25:10.246Z,97846.95
2018-09-05T02:27:39.605Z,97851.23
2018-09-05T02:30:08.986Z,97851.78
2018-09-05T02:32:38.462Z,97844.55
2018-09-05T02:35:07.825Z,97848.28
2018-09-05T02:37:37.147Z,97855.52
2018-09-05T02:40:07.102Z,97853.09
2018-09-05T02:42:36.409Z,97856.32
2018-09-05T02:45:05.992Z,97853.11
2018-09-05T02:47:35.465Z,97851.75
2018-09-05T02:50:04.887Z,97857.36
2018-09-05T02:52:34.682Z,97854.44
2018-09-05T02:55:04.015Z,97856.84
2018-09-05T02:57:33.348Z,97851.21
2018-09-05T03:00:02.768Z,97853.62
2018-09-05T03:02:32.069Z,97851.77
2018-09-05T03:05:01.350Z,97854.17
2018-09-05T03:07:30.676Z,97851.50
2018-09-05T03:10:00.015Z,97853.88
2018-09-05T03:12:29.268Z,97857.91
2018-09-05T03:14:58.529Z,97859.22
2018-09-05T03:17:27.841Z,97862.98
2018-09-05T03:19:57.102Z,97867.53
2018-09-05T03:22:26.478Z,97865.38
2018-09-05T03:24:55.773Z,97866.44
2018-09-05T03:27:25.061Z,97871.52
2018-09-05T03:29:54.387Z,97868.28
2018-09-05T03:32:23.734Z,97864.83
2018-09-05T03:34:53.021Z,97860.02
2018-09-05T03:37:22.270Z,97861.61
2018-09-05T03:39:51.580Z,97854.93
2018-09-05T03:42:20.894Z,97868.83
2018-09-05T03:44:50.181Z,97864.83
2018-09-05T03:47:19.525Z,97869.09
2018-09-05T03:49:48.876Z,97869.09
2018-09-05T03:52:18.199Z,97867.75
2018-09-05T03:54:47.518Z,97871.50
2018-09-05T03:57:16.825Z,97874.67
2018-09-05T03:59:46.114Z,97877.88
2018-09-05T04:02:15.492Z,97872.81
2018-09-05T04:04:44.786Z,97874.41
2018-09-05T04:07:14.146Z,97873.90
2018-09-05T04:09:43.487Z,97875.48
2018-09-05T04:12:12.852Z,97870.41
2018-09-05T04:14:42.087Z,97871.50
2018-09-05T04:17:11.423Z,97870.95
2018-09-05T04:19:40.714Z,97881.12
2018-09-05T04:22:10.054Z,97870.42
2018-09-05T04:24:39.539Z,97881.39
2018-09-05T04:27:08.951Z,97873.09
2018-09-05T04:29:38.275Z,97876.83
2018-09-05T04:32:07.622Z,97872.02
2018-09-05T04:34:36.885Z,97870.09
2018-09-05T04:37:06.781Z,97868.20
2018-09-05T04:39:36.049Z,97870.59
2018-09-05T04:42:05.472Z,97869.28
2018-09-05T04:44:34.746Z,97874.38
2018-09-05T04:47:04.117Z,97875.97
2018-09-05T04:49:33.399Z,97871.68
2018-09-05T04:52:02.695Z,97871.70
2018-09-05T04:54:31.934Z,97874.64
2018-09-05T04:57:01.199Z,97874.36
2018-09-05T04:59:30.472Z,97880.77
2018-09-05T05:01:59.716Z,97882.35
2018-09-05T05:04:29.061Z,97889.06
2018-09-05T05:06:58.318Z,97890.93
2018-09-05T05:09:27.556Z,97888.59
2018-09-05T05:11:56.830Z,97891.56
2018-09-05T05:14:26.182Z,97898.25
2018-09-05T05:16:55.513Z,97900.67
2018-09-05T05:19:25.046Z,97902.25
2018-09-05T05:21:54.341Z,97907.12
2018-09-05T05:24:23.797Z,97910.34
2018-09-05T05:26:53.149Z,97907.66
2018-09-05T05:29:22.385Z,97909.30
2018-09-05T05:31:51.673Z,97913.05
2018-09-05T05:34:20.965Z,97912.26
2018-09-05T05:36:50.301Z,97907.17
2018-09-05T05:39:19.605Z,97915.28
2018-09-05T05:41:48.990Z,97912.87
2018-09-05T05:44:18.302Z,97910.22
2018-09-05T05:46:47.675Z,97915.03
2018-09-05T05:49:16.947Z,97919.30
2018-09-05T05:51:46.466Z,97923.06
2018-09-05T05:54:15.730Z,97929.20
2018-09-05T05:56:44.997Z,97921.69
2018-09-05T05:59:14.670Z,97924.09
2018-09-05T06:01:43.930Z,97924.05
2018-09-05T06:04:13.236Z,97925.64
2018-09-05T06:06:42.518Z,97934.21
2018-09-05T06:09:12.132Z,97935.28
2018-09-05T06:11:41.427Z,97934.45
2018-09-05T06:14:10.740Z,97930.13
2018-09-05T06:16:40.088Z,97932.75
2018-09-05T06:19:09.496Z,97937.84
2018-09-05T06:21:38.980Z,97932.06
2018-09-05T06:24:08.313Z,97929.04
2018-09-05T06:26:37.617Z,97925.68
2018-09-05T06:29:06.947Z,97920.42
2018-09-05T06:31:36.262Z,97927.80
2018-09-05T06:34:05.643Z,97931.46
2018-09-05T06:36:34.949Z,97923.58
2018-09-05T06:39:06.473Z,97926.77
2018-09-05T06:41:35.730Z,97925.14
2018-09-05T06:44:05.152Z,97932.72
2018-09-05T06:46:34.510Z,97922.78
2018-09-05T06:49:03.998Z,97923.77
2018-09-05T06:51:33.570Z,97925.44
2018-09-05T06:54:03.010Z,97930.95
2018-09-05T06:56:32.540Z,97922.13
2018-09-05T06:59:01.839Z,97921.21
2018-09-05T07:01:31.168Z,97925.89
2018-09-05T07:04:00.681Z,97929.42
2018-09-05T07:06:29.999Z,97926.58
2018-09-05T07:09:00.052Z,97927.47
2018-09-05T07:11:29.346Z,97928.54
2018-09-05T07:13:58.654Z,97931.84
2018-09-05T07:16:27.923Z,97929.86
2018-09-05T07:18:57.221Z,97929.19
2018-09-05T07:21:26.691Z,97931.42
2018-09-05T07:23:55.911Z,97935.08
2018-09-05T07:26:25.176Z,97932.48
2018-09-05T07:28:54.479Z,97933.23
2018-09-05T07:31:23.742Z,97934.53
2018-09-05T07:33:53.042Z,97937.63
2018-09-05T07:36:22.406Z,97937.81
2018-09-05T07:38:51.706Z,97936.30
2018-09-05T07:41:20.985Z,97938.78
2018-09-05T07:43:50.356Z,97939.22
2018-09-05T07:46:19.601Z,97939.19
2018-09-05T07:48:48.865Z,97944.67
2018-09-05T07:51:18.430Z,97945.09
2018-09-05T07:53:47.702Z,97942.30
2018-09-05T07:56:17.503Z,97942.95
2018-09-05T07:58:47.077Z,97946.53
2018-09-05T08:01:16.374Z,97943.14
2018-09-05T08:03:45.613Z,97941.09
2018-09-05T08:06:14.913Z,97936.27
2018-09-05T08:08:44.233Z,97944.87
2018-09-05T08:11:13.550Z,97937.05
2018-09-05T08:13:42.830Z,97939.53
2018-09-05T08:16:12.086Z,97940.21
2018-09-05T08:18:41.399Z,97940.00
2018-09-05T08:21:10.713Z,97940.58
2018-09-05T08:23:39.975Z,97940.33
2018-09-05T08:26:09.249Z,97933.09
2018-09-05T08:28:38.505Z,97936.97
2018-09-05T08:31:07.789Z,97935.69
2018-09-05T08:33:37.107Z,97935.44
2018-09-05T08:36:06.838Z,97930.94
2018-09-05T08:38:35.985Z,97924.66
2018-09-05T08:41:10.420Z,97933.43
2018-09-05T08:43:40.826Z,97933.09
2018-09-05T08:46:10.255Z,97927.48
2018-09-05T08:48:39.482Z,97931.12
2018-09-05T08:51:08.771Z,97928.52
2018-09-05T08:53:38.086Z,97934.48
2018-09-05T08:56:07.515Z,97928.27
2018-09-05T08:58:36.817Z,97933.41
2018-09-05T09:01:06.283Z,97931.28
2018-09-05T09:03:35.567Z,97934.14
2018-09-05T09:06:04.924Z,97929.27
2018-09-05T09:08:34.204Z,97932.77
2018-09-05T09:11:03.493Z,97931.53
2018-09-05T09:13:32.750Z,97930.23
2018-09-05T09:16:02.009Z,97930.63
2018-09-05T09:18:31.249Z,97927.46
2018-09-05T09:21:00.492Z,97928.08
2018-09-05T09:23:29.787Z,97920.92
2018-09-05T09:25:59.091Z,97931.81
2018-09-05T09:28:28.471Z,97923.88
2018-09-05T09:30:57.745Z,97921.16
2018-09-05T09:33:27.098Z,97918.59
2018-09-05T09:35:56.376Z,97915.81
2018-09-05T09:38:25.665Z,97914.11
2018-09-05T09:40:54.912Z,97905.04
2018-09-05T09:43:24.129Z,97907.78
2018-09-05T09:45:53.393Z,97899.15
2018-09-05T09:48:22.647Z,97908.89
2018-09-05T09:50:51.860Z,97900.70
2018-09-05T09:53:21.103Z,97905.25
2018-09-05T09:55:50.398Z,97899.87
2018-09-05T09:58:19.658Z,97897.79
2018-09-05T10:00:53.961Z,97898.10
2018-09-05T10:03:28.483Z,97900.69
2018-09-05T10:06:02.956Z,97893.73
2018-09-05T10:08:36.759Z,97891.13
2018-09-05T10:11:11.307Z,97886.89
2018-09-05T10:13:45.852Z,97890.19
2018-09-05T10:16:20.205Z,97885.41
2018-09-05T10:18:51.507Z,97877.81
2018-09-05T10:21:20.805Z,97874.34
2018-09-05T10:23:50.088Z,97871.20
2018-09-05T10:26:19.350Z,97863.00
2018-09-05T10:28:48.602Z,97861.09
2018-09-05T10:31:17.848Z,97859.92
2018-09-05T10:33:47.095Z,97858.16
2018-09-05T10:36:16.334Z,97856.77
2018-09-05T10:38:45.837Z,97855.52
2018-09-05T10:41:15.068Z,97859.11
2018-09-05T10:43:44.307Z,97859.84
2018-09-05T10:46:13.507Z,97857.52
2018-09-05T10:48:42.907Z,97851.65
2018-09-05T10:51:12.266Z,97845.43
2018-09-05T10:53:41.659Z,97840.54
2018-09-05T10:56:41.301Z,97834.67
2018-09-05T10:59:10.669Z,97839.09
2018-09-05T11:01:43.001Z,97837.13
2018-09-05T11:04:12.439Z,97830.93
2018-09-05T11:06:41.724Z,97830.69
2018-09-05T11:09:11.927Z,97828.64
2018-09-05T11:11:41.326Z,97826.16
2018-09-05T11:14:11.451Z,97828.53
2018-09-05T11:16:41.145Z,97817.75
2018-09-05T11:19:10.703Z,97818.91
2018-09-05T11:21:40.334Z,97817.56
2018-09-05T11:24:09.674Z,97818.03
2018-09-05T11:26:39.278Z,97813.77
2018-09-05T11:29:08.646Z,97815.25
2018-09-05T11:31:37.862Z,97821.05
2018-09-05T11:34:07.161Z,97822.89
2018-09-05T11:36:36.484Z,97817.39
2018-09-05T11:39:09.921Z,97818.92
2018-09-05T11:41:39.424Z,97807.34
2018-09-05T11:44:08.694Z,97810.97
2018-09-05T11:46:38.807Z,97808.72
2018-09-05T11:49:09.005Z,97800.05
2018-09-05T11:51:38.402Z,97801.28
2018-09-05T11:54:08.343Z,97791.80
2018-09-05T11:56:37.678Z,97794.62
2018-09-05T11:59:07.218Z,97799.55
2018-09-05T12:01:36.554Z,97794.30
2018-09-05T12:04:05.960Z,97799.52
2018-09-05T12:06:35.326Z,97792.64
2018-09-05T12:09:07.838Z,97790.27
2018-09-05T12:11:37.145Z,97788.01
2018-09-05T12:14:06.856Z,97787.63
2018-09-05T12:16:37.496Z,97786.84
2018-09-05T12:19:07.517Z,97789.80
2018-09-05T12:21:36.903Z,97781.61
2018-09-05T12:24:06.288Z,97789.02
2018-09-05T12:26:35.651Z,97782.95
2018-09-05T12:29:07.617Z,97774.19
2018-09-05T12:31:36.973Z,97771.45
2018-09-05T12:34:06.294Z,97772.41
2018-09-05T12:36:35.744Z,97768.95
2018-09-05T12:39:09.337Z,97768.90
2018-09-05T12:41:38.786Z,97761.55
2018-09-05T12:44:08.162Z,97764.74
2018-09-05T12:46:37.890Z,97758.39
2018-09-05T12:49:07.479Z,97754.66
2018-09-05T12:51:37.175Z,97758.22
2018-09-05T12:54:07.447Z,97755.75
2018-09-05T12:56:36.990Z,97754.52
2018-09-05T12:59:06.541Z,97752.22
2018-09-05T13:01:35.978Z,97743.19
2018-09-05T13:04:05.404Z,97740.64
2018-09-05T13:06:35.237Z,97740.95
2018-09-05T13:09:07.202Z,97741.70
2018-09-05T13:11:36.619Z,97732.27
2018-09-05T13:14:06.124Z,97731.36
2018-09-05T13:16:35.587Z,97727.73
2018-09-05T13:19:05.048Z,97736.23
2018-09-05T13:21:34.663Z,97727.80
2018-09-05T13:24:04.065Z,97722.25
2018-09-05T13:26:33.713Z,97731.30
2018-09-05T13:29:03.172Z,97726.99
2018-09-05T13:31:33.480Z,97719.66
2018-09-05T13:34:02.933Z,97719.30
2018-09-05T13:36:32.591Z,97709.89
2018-09-05T13:39:01.923Z,97714.32
2018-09-05T13:41:31.606Z,97713.03
2018-09-05T13:44:01.101Z,97709.26
2018-09-05T13:46:30.671Z,97708.13
2018-09-05T13:49:00.248Z,97704.86
2018-09-05T13:51:29.780Z,97696.64
2018-09-05T13:53:59.303Z,97697.97
2018-09-05T13:56:28.788Z,97697.11
2018-09-05T13:58:58.292Z,97696.30
2018-09-05T14:01:27.867Z,97694.75
2018-09-05T14:03:57.448Z,97698.55
2018-09-05T14:06:27.126Z,97695.58
2018-09-05T14:08:56.645Z,97698.13
2018-09-05T14:11:26.595Z,97684.50
2018-09-05T14:13:56.021Z,97692.83
2018-09-05T14:16:25.526Z,97690.28
2018-09-05T14:18:55.134Z,97686.48
2018-09-05T14:21:24.632Z,97693.55
2018-09-05T14:23:54.174Z,97687.16
2018-09-05T14:26:23.815Z,97687.89
2018-09-05T14:28:53.388Z,97680.79
2018-09-05T14:31:22.927Z,97681.23
2018-09-05T14:33:53.258Z,97686.73
2018-09-05T14:36:23.093Z,97683.86
2018-09-05T14:38:52.882Z,97685.39
2018-09-05T14:41:22.412Z,97675.47
2018-09-05T14:43:52.045Z,97682.25
2018-09-05T14:46:21.777Z,97683.00
2018-09-05T14:48:51.530Z,97681.38
2018-09-05T14:51:21.251Z,97679.44
2018-09-05T14:53:50.927Z,97680.10
2018-09-05T14:56:20.505Z,97681.94
2018-09-05T14:58:50.318Z,97678.50
2018-09-05T15:01:19.920Z,97676.42
2018-09-05T15:03:49.423Z,97671.80
2018-09-05T15:06:19.052Z,97672.47
2018-09-05T15:08:48.638Z,97670.98
2018-09-05T15:11:18.210Z,97672.66
2018-09-05T15:13:47.747Z,97666.93
2018-09-05T15:16:17.440Z,97667.91
2018-09-05T15:18:47.063Z,97662.91
2018-09-05T15:21:16.612Z,97657.52
2018-09-05T15:23:46.199Z,97655.25
2018-09-05T15:26:15.884Z,97656.17
2018-09-05T15:28:45.956Z,97648.92
2018-09-05T15:31:15.568Z,97646.98
2018-09-05T15:33:45.386Z,97645.51
2018-09-05T15:36:15.130Z,97644.83
2018-09-05T15:38:44.678Z,97643.55
2018-09-05T15:41:14.232Z,97643.11
2018-09-05T15:43:43.915Z,97643.42
2018-09-05T15:46:13.527Z,97643.73
2018-09-05T15:48:43.296Z,97637.84
2018-09-05T15:51:12.831Z,97636.02
2018-09-05T15:53:44.847Z,97639.83
2018-09-05T15:56:14.746Z,97639.83
2018-09-05T15:58:44.226Z,97639.86
2018-09-05T16:01:14.115Z,97634.89
2018-09-05T16:03:43.948Z,97634.73
2018-09-05T16:06:13.757Z,97642.97
2018-09-05T16:08:43.464Z,97630.86
2018-09-05T16:11:13.079Z,97632.73
2018-09-05T16:13:43.505Z,97629.87
2018-09-05T16:16:13.303Z,97633.11
2018-09-05T16:18:49.730Z,97631.81
2018-09-05T16:21:19.144Z,97630.59
2018-09-05T16:23:48.746Z,97636.55
2018-09-05T16:26:18.236Z,97634.78
2018-09-05T16:28:47.910Z,97631.78
2018-09-05T16:31:17.468Z,97629.76
2018-09-05T16:33:47.005Z,97636.06
2018-09-05T16:36:16.822Z,97640.41
2018-09-05T16:38:48.215Z,97635.80
2018-09-05T16:41:18.075Z,97629.70
2018-09-05T16:43:47.743Z,97627.97
2018-09-05T16:46:17.538Z,97625.04
2018-09-05T16:48:47.075Z,97618.66
2018-09-05T16:51:16.666Z,97625.71
2018-09-05T16:53:46.418Z,97617.48
2018-09-05T16:56:16.086Z,97622.37
2018-09-05T16:58:45.715Z,97618.77
2018-09-05T17:01:15.345Z,97624.70
2018-09-05T17:03:44.955Z,97621.22
2018-09-05T17:06:18.391Z,97620.77
2018-09-05T17:08:47.824Z,97619.53
2018-09-05T17:11:18.046Z,97618.87
2018-09-05T17:13:47.838Z,97625.81
2018-09-05T17:16:17.393Z,97629.13
2018-09-05T17:18:46.946Z,97625.75
2018-09-05T17:21:16.499Z,97631.63
2018-09-05T17:23:46.042Z,97629.48
2018-09-05T17:26:15.649Z,97626.69
2018-09-05T17:28:45.306Z,97629.97
2018-09-05T17:31:15.042Z,97624.27
2018-09-05T17:33:44.755Z,97626.63
2018-09-05T17:36:14.932Z,97622.16
2018-09-05T17:38:44.635Z,97620.00
2018-09-05T17:41:14.129Z,97619.64
2018-09-05T17:43:43.652Z,97619.25
2018-09-05T17:46:13.105Z,97615.82
2018-09-05T17:48:42.956Z,97618.17
2018-09-05T17:51:12.565Z,97622.67
2018-09-05T17:53:44.679Z,97623.04
2018-09-05T17:56:14.493Z,97619.91
2018-09-05T17:58:44.430Z,97618.52
2018-09-05T18:01:16.901Z,97622.25
2018-09-05T18:03:46.431Z,97627.00
2018-09-05T18:06:15.919Z,97620.50
2018-09-05T18:08:45.870Z,97626.56
2018-09-05T18:11:15.696Z,97623.09
2018-09-05T18:13:47.202Z,97635.47
2018-09-05T18:16:16.702Z,97628.05
2018-09-05T18:18:46.516Z,97627.12
2018-09-05T18:21:15.973Z,97631.52
2018-09-05T18:23:45.843Z,97638.52
2018-09-05T18:26:15.529Z,97628.87
2018-09-05T18:28:45.239Z,97627.52
2018-09-05T18:31:14.898Z,97628.07
2018-09-05T18:33:44.631Z,97629.28
2018-09-05T18:36:14.398Z,97632.40
2018-09-05T18:38:44.307Z,97627.64
2018-09-05T18:41:14.352Z,97625.73
2018-09-05T18:43:44.113Z,97626.45
2018-09-05T18:46:13.726Z,97630.35
2018-09-05T18:48:43.557Z,97630.20
2018-09-05T18:51:13.020Z,97635.77
2018-09-05T18:53:42.802Z,97638.08
2018-09-05T18:56:12.454Z,97638.97
2018-09-05T18:58:41.994Z,97640.87
2018-09-05T19:01:11.611Z,97633.39
2018-09-05T19:03:41.228Z,97640.56
2018-09-05T19:06:10.747Z,97636.95
2018-09-05T19:08:40.294Z,97632.58
2018-09-05T19:11:09.778Z,97632.58
2018-09-05T19:13:39.350Z,97629.87
2018-09-05T19:16:09.076Z,97629.63
2018-09-05T19:18:38.553Z,97629.22
2018-09-05T19:21:08.027Z,97635.48
2018-09-05T19:23:37.493Z,97635.48
2018-09-05T19:26:12.438Z,97634.38
2018-09-05T19:28:41.851Z,97635.21
2018-09-05T19:31:11.229Z,97636.73
2018-09-05T19:33:40.927Z,97640.55
2018-09-05T19:36:10.577Z,97631.44
2018-09-05T19:38:40.308Z,97632.32
2018-09-05T19:41:09.945Z,97629.15
2018-09-05T19:43:39.360Z,97630.97
2018-09-05T19:46:09.127Z,97631.91
2018-09-05T19:48:38.916Z,97627.71
2018-09-05T19:51:08.530Z,97629.38
2018-09-05T19:53:38.374Z,97631.72
2018-09-05T19:56:08.223Z,97641.48
2018-09-05T19:58:37.653Z,97634.30
2018-09-05T20:01:07.358Z,97637.04
2018-09-05T20:03:36.920Z,97632.40
2018-09-05T20:06:07.659Z,97634.56
2018-09-05T20:08:37.188Z,97632.20
2018-09-05T20:11:06.725Z,97634.44
2018-09-05T20:13:36.428Z,97636.72
2018-09-05T20:16:06.159Z,97631.27
2018-09-05T20:18:35.537Z,97640.52
2018-09-05T20:21:05.005Z,97625.63
2018-09-05T20:23:34.558Z,97625.67
2018-09-05T20:26:03.910Z,97629.58
2018-09-05T20:28:33.268Z,97629.87
2018-09-05T20:31:02.648Z,97628.86
2018-09-05T20:33:31.947Z,97623.97
2018-09-05T20:36:01.656Z,97621.91
2018-09-05T20:38:31.285Z,97628.06
2018-09-05T20:41:00.700Z,97624.98
2018-09-05T20:43:30.133Z,97626.01
2018-09-05T20:45:59.574Z,97618.68
2018-09-05T20:48:29.041Z,97624.45
2018-09-05T20:50:58.722Z,97627.70
2018-09-05T20:53:28.183Z,97623.23
2018-09-05T20:55:57.626Z,97629.13
2018-09-05T20:58:27.018Z,97629.86
2018-09-05T21:00:56.562Z,97618.56
2018-09-05T21:03:25.960Z,97628.71
2018-09-05T21:05:55.362Z,97623.17
2018-09-05T21:08:24.710Z,97620.52
2018-09-05T21:10:54.270Z,97617.63
2018-09-05T21:13:23.667Z,97614.96
2018-09-05T21:15:53.101Z,97616.13
2018-09-05T21:18:22.485Z,97614.89
2018-09-05T21:20:52.467Z,97612.62
2018-09-05T21:23:21.918Z,97610.34
2018-09-05T21:25:51.339Z,97607.06
2018-09-05T21:28:20.669Z,97606.88
2018-09-05T21:30:50.149Z,97604.51
2018-09-05T21:33:19.570Z,97610.63
2018-09-05T21:35:48.948Z,97613.55
2018-09-05T21:38:18.376Z,97614.52
2018-09-05T21:40:47.760Z,97617.63
2018-09-05T21:43:17.072Z,97616.32
2018-09-05T21:45:46.485Z,97612.80
2018-09-05T21:48:15.841Z,97621.08
2018-09-05T21:50:45.241Z,97616.40
2018-09-05T21:53:14.733Z,97618.61
2018-09-05T21:55:44.255Z,97619.51
2018-09-05T21:58:13.687Z,97616.94
2018-09-05T22:00:43.213Z,97628.90
2018-09-05T22:03:12.627Z,97627.95
2018-09-05T22:05:42.005Z,97638.66
2018-09-05T22:08:11.474Z,97624.90
2018-09-05T22:10:40.907Z,97628.89
2018-09-05T22:13:10.317Z,97632.38
2018-09-05T22:15:47.902Z,97634.04
2018-09-05T22:18:18.321Z,97632.81
2018-09-05T22:20:47.699Z,97636.41
2018-09-05T22:23:17.233Z,97636.52
2018-09-05T22:25:46.637Z,97638.16
2018-09-05T22:28:16.055Z,97638.09
2018-09-05T22:30:45.545Z,97639.55
2018-09-05T22:33:14.942Z,97639.30
2018-09-05T22:35:44.256Z,97629.48
2018-09-05T22:38:13.557Z,97630.75
2018-09-05T22:40:48.202Z,97615.56
2018-09-05T22:43:36.059Z,97618.91
2018-09-05T22:46:22.578Z,97619.70
2018-09-05T22:51:22.349Z,97625.91
2018-09-05T22:56:12.832Z,97625.97
2018-09-05T22:58:59.829Z,97623.61
2018-09-05T23:04:21.423Z,97619.23
2018-09-05T23:07:45.517Z,97607.16
2018-09-05T23:10:31.870Z,97611.03
2018-09-05T23:13:18.164Z,97610.88
2018-09-05T23:16:04.642Z,97609.34
2018-09-05T23:19:51.704Z,97611.16
2018-09-05T23:22:21.043Z,97606.03
2018-09-05T23:24:50.398Z,97610.07
2018-09-05T23:27:19.697Z,97605.36
2018-09-05T23:29:48.991Z,97606.98
2018-09-05T23:32:18.279Z,97607.83
2018-09-05T23:34:47.591Z,97602.98
2018-09-05T23:37:16.941Z,97605.45
2018-09-05T23:39:46.274Z,97599.33
2018-09-05T23:42:15.647Z,97602.20
2018-09-05T23:44:45.082Z,97600.08
2018-09-05T23:47:14.435Z,97593.13
2018-09-05T23:49:43.815Z,97593.80
2018-09-05T23:52:13.452Z,97583.02
2018-09-05T23:54:42.811Z,97591.31
2018-09-05T23:57:12.500Z,97586.69
2018-09-05T23:59:41.830Z,97581.11
